Time,TemperatureF,DewpointF,PressureIn,WindDirection,WindDirectionDegrees,WindSpeedMPH,WindSpeedGustMPH,Humidity,HourlyPrecipIn,Conditions,Clouds,dailyrainin,SolarRadiationWatts/m^2,SoftwareType,DateUTC
2013-04-05 00:03:00,37.0,37.0,-100.00,NW,326,2.0,4.0,100,0.00,,,0.65,0.000000,,2013-04-05 04:03:00,
2013-04-05 00:33:00,37.0,37.0,-100.00,WNW,287,1.0,4.0,100,0.00,,,0.65,0.000000,,2013-04-05 04:33:00,
2013-04-05 00:42:00,37.0,37.0,-100.00,WNW,287,1.0,4.0,100,0.00,,,0.65,0.000000,,2013-04-05 04:42:00,
2013-04-05 00:52:00,37.0,37.0,-100.00,WNW,287,1.0,4.0,100,0.00,,,0.65,0.000000,,2013-04-05 04:52:00,
2013-04-05 01:02:00,37.0,37.0,-100.00,WNW,287,1.0,4.0,100,0.00,,,0.65,0.000000,,2013-04-05 05:02:00,
2013-04-05 01:32:00,36.0,36.0,-100.00,South,169,4.0,8.0,100,0.00,,,0.65,0.000000,,2013-04-05 05:32:00,
2013-04-05 01:42:00,36.0,36.0,-100.00,South,169,4.0,8.0,100,0.00,,,0.65,0.000000,,2013-04-05 05:42:00,
2013-04-05 01:53:00,36.0,36.0,-100.00,South,169,4.0,8.0,100,0.00,,,0.65,0.000000,,2013-04-05 05:53:00,
2013-04-05 02:02:00,36.0,36.0,-100.00,South,169,4.0,8.0,100,0.00,,,0.65,0.000000,,2013-04-05 06:02:00,
2013-04-05 03:32:00,36.0,36.0,-100.00,North,357,6.0,9.0,100,-99.99,,,0.64,0.000000,,2013-04-05 07:32:00,
2013-04-05 03:42:00,36.0,36.0,-100.00,North,357,6.0,9.0,100,-99.99,,,0.64,0.000000,,2013-04-05 07:42:00,
2013-04-05 03:53:00,36.0,36.0,-100.00,North,357,6.0,9.0,100,-99.99,,,0.64,0.000000,,2013-04-05 07:53:00,
2013-04-05 04:03:00,36.0,36.0,-100.00,North,357,6.0,9.0,100,-99.99,,,0.64,0.000000,,2013-04-05 08:03:00,
2013-04-05 04:33:00,37.0,37.0,-100.00,North,352,9.0,15.0,100,0.00,,,0.52,0.000000,,2013-04-05 08:33:00,
2013-04-05 04:43:00,37.0,37.0,-100.00,North,352,9.0,15.0,100,0.00,,,0.52,0.000000,,2013-04-05 08:43:00,
2013-04-05 04:52:00,37.0,37.0,-100.00,North,352,9.0,15.0,100,0.00,,,0.52,0.000000,,2013-04-05 08:52:00,
2013-04-05 05:02:00,37.0,37.0,-100.00,North,352,9.0,15.0,100,0.00,,,0.52,0.000000,,2013-04-05 09:02:00,
2013-04-05 06:33:00,38.0,38.0,-100.00,North,1,7.0,17.0,100,-99.99,,,0.46,0.000000,,2013-04-05 10:33:00,
2013-04-05 06:43:00,38.0,38.0,-100.00,North,1,7.0,17.0,100,-99.99,,,0.46,0.000000,,2013-04-05 10:43:00,
2013-04-05 06:53:00,38.0,38.0,-100.00,North,1,7.0,17.0,100,-99.99,,,0.46,0.000000,,2013-04-05 10:53:00,
2013-04-05 07:03:00,38.0,38.0,-100.00,North,1,7.0,17.0,100,-99.99,,,0.46,0.000000,,2013-04-05 11:03:00,
2013-04-05 07:33:00,38.0,38.0,-100.00,North,349,8.0,19.0,100,0.00,,,0.46,0.000000,,2013-04-05 11:33:00,
2013-04-05 07:42:00,38.0,38.0,-100.00,North,349,8.0,19.0,100,0.00,,,0.46,0.000000,,2013-04-05 11:42:00,
2013-04-05 07:52:00,38.0,38.0,-100.00,North,349,8.0,19.0,100,0.00,,,0.46,0.000000,,2013-04-05 11:52:00,
2013-04-05 08:02:00,38.0,38.0,-100.00,North,349,8.0,19.0,100,0.00,,,0.46,0.000000,,2013-04-05 12:02:00,
2013-04-05 08:32:00,38.0,38.0,-100.00,North,1,7.0,14.0,100,0.00,,,0.45,28.000000,,2013-04-05 12:32:00,
2013-04-05 08:42:00,38.0,38.0,-100.00,North,1,7.0,14.0,100,0.00,,,0.45,28.000000,,2013-04-05 12:42:00,
2013-04-05 08:52:00,38.0,38.0,-100.00,North,1,7.0,14.0,100,0.00,,,0.45,28.000000,,2013-04-05 12:52:00,
2013-04-05 09:02:00,38.0,38.0,-100.00,North,1,7.0,14.0,100,0.00,,,0.45,28.000000,,2013-04-05 13:02:00,
2013-04-05 09:32:00,38.0,38.0,-100.00,North,354,9.0,16.0,100,0.00,,,0.41,95.000000,,2013-04-05 13:32:00,
2013-04-05 09:43:00,38.0,38.0,-100.00,North,354,9.0,16.0,100,0.00,,,0.41,95.000000,,2013-04-05 13:43:00,
2013-04-05 09:53:00,38.0,38.0,-100.00,North,354,9.0,16.0,100,0.00,,,0.41,95.000000,,2013-04-05 13:53:00,
2013-04-05 10:03:00,38.0,38.0,-100.00,North,354,9.0,16.0,100,0.00,,,0.41,95.000000,,2013-04-05 14:03:00,
2013-04-05 10:37:00,41.0,41.0,-100.00,NNW,347,10.0,19.0,100,0.00,,,0.33,227.000000,,2013-04-05 14:37:00,
2013-04-05 10:43:00,41.0,41.0,-100.00,NNW,347,10.0,19.0,100,0.00,,,0.33,227.000000,,2013-04-05 14:43:00,
2013-04-05 10:54:00,41.0,41.0,-100.00,NNW,347,10.0,19.0,100,0.00,,,0.33,227.000000,,2013-04-05 14:54:00,
2013-04-05 11:02:00,41.0,41.0,-100.00,NNW,347,10.0,19.0,100,0.00,,,0.33,227.000000,,2013-04-05 15:02:00,
2013-04-05 11:34:00,44.0,40.0,-100.00,North,353,7.0,16.0,86,0.00,,,0.24,633.000000,,2013-04-05 15:34:00,
2013-04-05 11:43:00,44.0,40.0,-100.00,North,353,7.0,16.0,86,0.00,,,0.24,633.000000,,2013-04-05 15:43:00,
2013-04-05 11:54:00,44.0,40.0,-100.00,North,353,7.0,16.0,86,0.00,,,0.24,633.000000,,2013-04-05 15:54:00,
2013-04-05 12:03:00,44.0,40.0,-100.00,North,353,7.0,16.0,86,0.00,,,0.24,633.000000,,2013-04-05 16:03:00,
2013-04-05 12:33:00,47.0,41.0,-100.00,NNW,347,6.0,15.0,80,0.00,,,0.17,695.000000,,2013-04-05 16:33:00,
2013-04-05 12:43:00,47.0,41.0,-100.00,NNW,347,6.0,15.0,80,0.00,,,0.17,695.000000,,2013-04-05 16:43:00,
2013-04-05 12:53:00,47.0,41.0,-100.00,NNW,347,6.0,15.0,80,0.00,,,0.17,695.000000,,2013-04-05 16:53:00,
2013-04-05 13:03:00,47.0,41.0,-100.00,NNW,347,6.0,15.0,80,0.00,,,0.17,695.000000,,2013-04-05 17:03:00,
2013-04-05 13:33:00,52.0,42.0,-100.00,NNW,337,6.0,12.0,69,0.00,,,0.12,1040.000000,,2013-04-05 17:33:00,
2013-04-05 13:46:00,52.0,42.0,-100.00,NNW,337,6.0,12.0,69,0.00,,,0.12,1040.000000,,2013-04-05 17:46:00,
2013-04-05 13:53:00,52.0,42.0,-100.00,NNW,337,6.0,12.0,69,0.00,,,0.12,1040.000000,,2013-04-05 17:53:00,
2013-04-05 14:02:00,52.0,42.0,-100.00,NNW,337,6.0,12.0,69,0.00,,,0.12,1040.000000,,2013-04-05 18:02:00,
2013-04-05 14:43:00,54.0,41.0,-100.00,NW,317,7.0,15.0,61,0.00,,,0.07,906.000000,,2013-04-05 18:43:00,
2013-04-05 14:53:00,54.0,41.0,-100.00,NW,317,7.0,15.0,61,0.00,,,0.07,906.000000,,2013-04-05 18:53:00,
2013-04-05 15:02:00,54.0,41.0,-100.00,NW,317,7.0,15.0,61,0.00,,,0.07,906.000000,,2013-04-05 19:02:00,
2013-04-05 15:33:00,56.0,38.0,-100.00,NW,324,9.0,16.0,50,0.00,,,0.07,1135.000000,,2013-04-05 19:33:00,
2013-04-05 15:43:00,56.0,38.0,-100.00,NW,324,9.0,16.0,50,0.00,,,0.07,1135.000000,,2013-04-05 19:43:00,
2013-04-05 15:53:00,56.0,38.0,-100.00,NW,324,9.0,16.0,50,0.00,,,0.07,1135.000000,,2013-04-05 19:53:00,
2013-04-05 16:03:00,56.0,38.0,-100.00,NW,324,9.0,16.0,50,0.00,,,0.07,1135.000000,,2013-04-05 20:03:00,
2013-04-05 16:33:00,57.0,30.0,-100.00,NNW,343,8.0,19.0,36,0.00,,,0.03,1043.000000,,2013-04-05 20:33:00,
2013-04-05 16:43:00,57.0,30.0,-100.00,NNW,343,8.0,19.0,36,0.00,,,0.03,1043.000000,,2013-04-05 20:43:00,
2013-04-05 16:53:00,57.0,30.0,-100.00,NNW,343,8.0,19.0,36,0.00,,,0.03,1043.000000,,2013-04-05 20:53:00,
2013-04-05 17:02:00,57.0,30.0,-100.00,NNW,343,8.0,19.0,36,0.00,,,0.03,1043.000000,,2013-04-05 21:02:00,
2013-04-05 17:34:00,58.0,23.0,-100.00,NNW,331,9.0,19.0,26,0.00,,,0.02,855.000000,,2013-04-05 21:34:00,
2013-04-05 17:44:00,58.0,23.0,-100.00,NNW,331,9.0,19.0,26,0.00,,,0.02,855.000000,,2013-04-05 21:44:00,
2013-04-05 17:55:00,58.0,23.0,-100.00,NNW,331,9.0,19.0,26,0.00,,,0.02,855.000000,,2013-04-05 21:55:00,
2013-04-05 18:03:00,58.0,23.0,-100.00,NNW,331,9.0,19.0,26,0.00,,,0.02,855.000000,,2013-04-05 22:03:00,
2013-04-05 18:34:00,57.0,20.0,-100.00,NNW,332,10.0,19.0,23,0.00,,,0.01,627.000000,,2013-04-05 22:34:00,
2013-04-05 18:44:00,57.0,20.0,-100.00,NNW,332,10.0,19.0,23,0.00,,,0.01,627.000000,,2013-04-05 22:44:00,
2013-04-05 18:53:00,57.0,20.0,-100.00,NNW,332,10.0,19.0,23,0.00,,,0.01,627.000000,,2013-04-05 22:53:00,
2013-04-05 19:03:00,57.0,20.0,-100.00,NNW,332,10.0,19.0,23,0.00,,,0.01,627.000000,,2013-04-05 23:03:00,
2013-04-05 19:33:00,55.0,26.0,-100.00,NNW,338,9.0,18.0,32,0.00,,,0.01,350.000000,,2013-04-05 23:33:00,
2013-04-05 19:43:00,55.0,26.0,-100.00,NNW,338,9.0,18.0,32,0.00,,,0.01,350.000000,,2013-04-05 23:43:00,
2013-04-05 19:53:00,55.0,26.0,-100.00,NNW,338,9.0,18.0,32,0.00,,,0.01,350.000000,,2013-04-05 23:53:00,
2013-04-05 20:03:00,55.0,26.0,-100.00,NNW,338,9.0,18.0,32,0.00,,,0.01,350.000000,,2013-04-06 00:03:00,
2013-04-05 20:33:00,51.0,28.0,-100.00,North,349,11.0,20.0,41,0.00,,,0.01,74.000000,,2013-04-06 00:33:00,
2013-04-05 20:43:00,51.0,28.0,-100.00,North,349,11.0,20.0,41,0.00,,,0.01,74.000000,,2013-04-06 00:43:00,
2013-04-05 20:53:00,51.0,28.0,-100.00,North,349,11.0,20.0,41,0.00,,,0.01,74.000000,,2013-04-06 00:53:00,
2013-04-05 21:02:00,51.0,28.0,-100.00,North,349,11.0,20.0,41,0.00,,,0.01,74.000000,,2013-04-06 01:02:00,
2013-04-05 21:33:00,48.0,29.0,-100.00,NNW,347,9.0,17.0,47,0.00,,,0.01,0.000000,,2013-04-06 01:33:00,
2013-04-05 21:43:00,48.0,29.0,-100.00,NNW,347,9.0,17.0,47,0.00,,,0.01,0.000000,,2013-04-06 01:43:00,
2013-04-05 21:53:00,48.0,29.0,-100.00,NNW,347,9.0,17.0,47,0.00,,,0.01,0.000000,,2013-04-06 01:53:00,
2013-04-05 22:02:00,48.0,29.0,-100.00,NNW,347,9.0,17.0,47,0.00,,,0.01,0.000000,,2013-04-06 02:02:00,
2013-04-05 22:33:00,48.0,29.0,-100.00,North,357,8.0,17.0,47,0.00,,,0.00,0.000000,,2013-04-06 02:33:00,
2013-04-05 22:43:00,48.0,29.0,-100.00,North,357,8.0,17.0,47,0.00,,,0.00,0.000000,,2013-04-06 02:43:00,
2013-04-05 22:53:00,48.0,29.0,-100.00,North,357,8.0,17.0,47,0.00,,,0.00,0.000000,,2013-04-06 02:53:00,
2013-04-05 23:03:00,48.0,29.0,-100.00,North,357,8.0,17.0,47,0.00,,,0.00,0.000000,,2013-04-06 03:03:00,
2013-04-05 23:34:00,47.0,28.0,-100.00,North,354,6.0,16.0,48,0.00,,,0.00,0.000000,,2013-04-06 03:34:00,
2013-04-05 23:43:00,47.0,28.0,-100.00,North,354,6.0,16.0,48,0.00,,,0.00,0.000000,,2013-04-06 03:43:00,
2013-04-05 23:55:00,47.0,28.0,-100.00,North,354,6.0,16.0,48,0.00,,,0.00,0.000000,,2013-04-06 03:55:00,